Time;durP1;ratioP1;P1;durP2;ratioP2;P2;SDS_P1;SDS_P2;PMS_P1;PMS_P2;Temp;Humidity;BMP_temperature;BMP_pressure;BME280_temperature;BME280_humidity;BME280_pressure;Samples;Min_cycle;Max_cycle;Signal;HPM_P1;HPM_P2
2022/01/02 00:01:05;;;;;;;2.97;2.73;;;;;;;8.01;73.09;96138.44;4404354;32;20304;-62
2022/01/02 00:03:35;;;;;;;3.10;2.77;;;;;;;8.00;73.13;96142.13;4409777;32;20289;-62
2022/01/02 00:06:07;;;;;;;3.70;3.40;;;;;;;7.93;73.35;96128.34;4422449;32;20283;-62
2022/01/02 00:08:41;;;;;;;3.23;2.90;;;;;;;7.99;73.05;96132.59;4408346;32;20271;-62
2022/01/02 00:11:10;;;;;;;2.83;2.63;;;;;;;7.86;73.65;96133.88;4416574;32;20324;-62
2022/01/02 00:13:45;;;;;;;3.53;3.23;;;;;;;8.00;73.00;96118.34;4407961;32;20268;-62
2022/01/02 00:16:12;;;;;;;2.97;2.77;;;;;;;7.87;73.36;96118.81;4422016;32;20275;-62
2022/01/02 00:18:46;;;;;;;3.67;3.37;;;;;;;8.02;73.17;96110.16;4417876;32;20298;-62
2022/01/02 00:21:12;;;;;;;3.40;3.20;;;;;;;8.06;72.70;96112.03;4411083;32;20296;-62
2022/01/02 00:23:49;;;;;;;2.97;2.67;;;;;;;7.88;73.70;96109.84;4407984;32;20317;-61
2022/01/02 00:26:17;;;;;;;3.40;3.10;;;;;;;7.89;73.33;96109.59;4412811;32;20184;-62
2022/01/02 00:28:45;;;;;;;3.13;2.87;;;;;;;7.75;73.62;96100.50;4418870;32;20263;-62
2022/01/02 00:31:12;;;;;;;3.37;3.07;;;;;;;7.69;73.60;96096.22;4407696;32;20275;-62
2022/01/02 00:33:40;;;;;;;2.90;2.70;;;;;;;7.72;73.29;96094.94;4405233;32;20290;-62
2022/01/02 00:36:05;;;;;;;2.90;2.73;;;;;;;7.61;73.65;96094.09;4416256;32;20328;-62
2022/01/02 00:38:31;;;;;;;3.13;2.93;;;;;;;7.48;74.47;96086.62;4416630;32;20263;-62
2022/01/02 00:40:57;;;;;;;3.17;2.90;;;;;;;7.59;74.01;96091.69;4421572;32;20184;-62
2022/01/02 00:43:33;;;;;;;3.03;2.83;;;;;;;7.65;73.55;96084.63;4416002;32;20191;-62
2022/01/02 00:46:00;;;;;;;3.30;3.00;;;;;;;7.51;73.96;96084.25;4422554;32;20291;-62
2022/01/02 00:48:29;;;;;;;3.47;2.90;;;;;;;7.48;73.74;96082.13;4409549;32;20311;-62
2022/01/02 00:51:26;;;;;;;3.00;2.80;;;;;;;7.57;73.46;96082.44;4407656;32;20298;-62
2022/01/02 00:53:57;;;;;;;3.13;2.73;;;;;;;7.50;73.33;96069.47;4414639;32;20280;-62
2022/01/02 00:56:27;;;;;;;2.83;2.63;;;;;;;7.38;73.67;96076.00;4406147;32;20425;-62
2022/01/02 00:59:00;;;;;;;2.90;2.70;;;;;;;7.47;73.33;96075.28;4412565;32;20271;-62
2022/01/02 01:01:33;;;;;;;2.67;2.50;;;;;;;7.66;73.01;96088.06;4410603;32;20313;-62
2022/01/02 01:04:00;;;;;;;2.23;2.03;;;;;;;7.58;72.90;96081.41;4422019;32;20287;-62
2022/01/02 01:06:31;;;;;;;2.97;2.77;;;;;;;7.46;73.06;96081.59;4405974;32;20341;-62
2022/01/02 01:09:00;;;;;;;2.93;2.70;;;;;;;7.44;73.30;96088.19;4410891;32;20302;-62
2022/01/02 01:11:28;;;;;;;2.77;2.57;;;;;;;7.10;74.16;96079.72;4422805;32;20309;-62
2022/01/02 01:13:55;;;;;;;2.73;2.53;;;;;;;7.16;73.85;96076.09;4409712;32;20275;-62
2022/01/02 01:16:21;;;;;;;2.53;2.33;;;;;;;7.16;73.83;96081.38;4421055;32;20287;-62
2022/01/02 01:18:47;;;;;;;3.00;2.80;;;;;;;6.83;75.04;96088.50;4408658;32;20294;-62
2022/01/02 01:21:13;;;;;;;3.40;2.80;;;;;;;7.00;74.69;96082.31;4415125;32;20176;-62
2022/01/02 01:23:40;;;;;;;3.30;3.00;;;;;;;6.96;74.38;96081.22;4406356;32;20290;-62
2022/01/02 01:26:07;;;;;;;3.07;2.67;;;;;;;6.67;75.44;96088.59;4418730;32;20275;-62
2022/01/02 01:28:33;;;;;;;3.03;2.77;;;;;;;6.64;75.70;96084.63;4421006;32;20263;-62
2022/01/02 01:30:59;;;;;;;3.43;2.50;;;;;;;6.57;75.97;96089.31;4414778;32;20310;-62
2022/01/02 01:33:24;;;;;;;2.87;2.60;;;;;;;6.70;75.48;96093.38;4419698;32;20180;-62
2022/01/02 01:35:50;;;;;;;2.80;2.40;;;;;;;6.90;74.65;96091.72;4422681;32;20202;-62
2022/01/02 01:38:16;;;;;;;2.60;2.40;;;;;;;6.79;75.17;96091.87;4421014;32;20268;-62
2022/01/02 01:40:54;;;;;;;2.97;2.30;;;;;;;7.09;73.90;96088.69;4422701;32;20279;-62
2022/01/02 01:43:23;;;;;;;2.50;2.30;;;;;;;7.04;73.71;96094.75;4411112;32;20187;-62
2022/01/02 01:45:48;;;;;;;2.50;2.30;;;;;;;7.02;73.68;96080.22;4412088;32;20332;-62
2022/01/02 01:48:14;;;;;;;2.53;2.40;;;;;;;6.83;74.56;96072.69;4416107;32;20298;-64
2022/01/02 01:50:42;;;;;;;2.40;2.20;;;;;;;6.66;75.94;96071.97;4422572;32;20211;-62
2022/01/02 01:53:09;;;;;;;2.37;2.27;;;;;;;6.77;75.18;96078.16;4420784;32;20184;-62
2022/01/02 01:55:36;;;;;;;3.30;2.10;;;;;;;6.88;74.13;96077.19;4417918;32;20396;-62
2022/01/02 01:58:03;;;;;;;2.40;2.20;;;;;;;6.71;74.80;96074.66;4405871;32;20284;-62
2022/01/02 02:00:29;;;;;;;2.60;2.40;;;;;;;6.90;74.32;96065.34;4407179;32;20284;-62
2022/01/02 02:02:56;;;;;;;2.40;2.20;;;;;;;6.81;74.14;96063.44;4407105;32;20306;-62
2022/01/02 02:05:21;;;;;;;2.17;2.07;;;;;;;6.87;73.75;96051.84;4405586;32;20283;-62
2022/01/02 02:07:47;;;;;;;1.90;1.80;;;;;;;6.67;74.04;96055.13;4406788;32;20286;-62
2022/01/02 02:10:18;;;;;;;2.03;1.90;;;;;;;6.80;73.35;96044.16;4408735;32;20267;-62
2022/01/02 02:12:46;;;;;;;2.17;1.97;;;;;;;6.84;73.01;96045.25;4410133;32;20171;-62
2022/01/02 02:15:14;;;;;;;2.23;1.70;;;;;;;7.05;72.41;96042.78;4406937;32;20282;-62
2022/01/02 02:17:40;;;;;;;2.27;2.07;;;;;;;6.96;72.14;96044.28;4409926;32;20319;-62
2022/01/02 02:20:12;;;;;;;1.70;1.60;;;;;;;7.10;72.15;96035.69;4406520;32;20286;-62
2022/01/02 02:22:40;;;;;;;2.07;1.87;;;;;;;7.20;71.78;96034.97;4405948;32;20267;-62
2022/01/02 02:25:07;;;;;;;1.80;1.70;;;;;;;7.26;70.43;96033.97;4405567;32;20264;-62
2022/01/02 02:27:33;;;;;;;2.03;1.93;;;;;;;7.26;70.63;96033.97;4406619;32;20271;-62
2022/01/02 02:29:58;;;;;;;2.03;1.93;;;;;;;7.32;69.81;96032.94;4406703;32;20275;-62
2022/01/02 02:32:24;;;;;;;1.90;1.80;;;;;;;7.30;70.23;96028.94;4410271;32;20268;-62
2022/01/02 02:34:50;;;;;;;2.10;1.80;;;;;;;7.28;70.22;96021.28;4413929;32;20180;-62
2022/01/02 02:37:15;;;;;;;1.73;1.63;;;;;;;7.35;69.77;96018.44;4418730;32;20336;-62
2022/01/02 02:39:40;;;;;;;1.73;1.63;;;;;;;7.46;69.55;96020.88;4412856;32;20232;-62
2022/01/02 02:42:14;;;;;;;3.07;2.10;;;;;;;7.58;69.05;96016.19;4418800;32;20175;-62
2022/01/02 02:44:40;;;;;;;1.80;1.70;;;;;;;7.42;69.22;96019.81;4405597;32;20221;-62
2022/01/02 02:49:49;;;;;;;1.93;1.83;;;;;;;7.27;70.67;96014.44;4409088;32;20390;-62
2022/01/02 02:52:34;;;;;;;2.13;2.03;;;;;;;7.18;71.23;96008.03;4420025;32;20366;-62
2022/01/02 02:54:59;;;;;;;1.90;1.70;;;;;;;7.22;71.19;96009.94;4408201;32;20179;-62
2022/01/02 02:57:25;;;;;;;1.90;1.80;;;;;;;7.21;70.71;96004.91;4408159;32;20319;-62
2022/01/02 02:59:50;;;;;;;1.93;1.83;;;;;;;7.08;71.23;95994.78;4408104;32;20205;-62
2022/01/02 03:02:15;;;;;;;1.83;1.73;;;;;;;7.31;70.77;95989.12;4406668;32;20237;-62
2022/01/02 03:04:40;;;;;;;2.30;1.70;;;;;;;7.28;70.57;95979.06;4406237;32;20199;-62
2022/01/02 03:07:06;;;;;;;3.80;2.13;;;;;;;7.33;70.57;95979.09;4405968;32;20307;-62
2022/01/02 03:11:56;;;;;;;1.57;1.47;;;;;;;7.21;70.58;95975.88;4405681;32;20184;-62
2022/01/02 03:14:22;;;;;;;1.67;1.57;;;;;;;7.28;70.25;95975.63;4409481;32;20397;-62
2022/01/02 03:16:47;;;;;;;2.07;1.97;;;;;;;7.28;70.21;95984.34;4409930;32;20214;-62
2022/01/02 03:19:12;;;;;;;1.87;1.70;;;;;;;7.21;70.65;95981.16;4421254;32;20243;-62
2022/01/02 03:21:37;;;;;;;2.80;2.60;;;;;;;7.15;70.14;95980.31;4419556;32;20195;-62
2022/01/02 03:24:03;;;;;;;1.50;1.40;;;;;;;7.01;71.19;95988.94;4414669;32;22835;-62
2022/01/02 03:26:28;;;;;;;1.70;1.60;;;;;;;7.13;70.67;95981.63;4419900;32;20215;-62
2022/01/02 03:28:54;;;;;;;1.70;1.60;;;;;;;7.04;70.98;95973.41;4418786;32;20199;-62
2022/01/02 03:31:19;;;;;;;1.83;1.30;;;;;;;7.16;69.90;95962.66;4413425;32;20274;-62
2022/01/02 03:33:44;;;;;;;1.60;1.50;;;;;;;7.15;70.61;95963.69;4421066;32;20193;-62
2022/01/02 03:36:10;;;;;;;1.70;1.60;;;;;;;7.10;71.29;95961.81;4421475;32;20188;-62
2022/01/02 03:38:36;;;;;;;1.47;1.37;;;;;;;7.05;70.62;95959.16;4408604;32;20266;-62
2022/01/02 03:41:01;;;;;;;1.90;1.80;;;;;;;7.08;71.38;95947.28;4417573;32;20192;-62
2022/01/02 03:43:26;;;;;;;2.60;1.90;;;;;;;6.89;71.83;95950.34;4411711;32;20192;-62
2022/01/02 03:45:52;;;;;;;1.90;1.80;;;;;;;7.15;70.88;95958.41;4416858;32;20198;-62
2022/01/02 03:48:17;;;;;;;1.70;1.60;;;;;;;7.18;69.87;95953.44;4410033;32;20192;-62
2022/01/02 03:50:42;;;;;;;1.37;1.27;;;;;;;7.36;69.71;95954.03;4412301;32;20215;-62
2022/01/02 03:53:08;;;;;;;1.80;1.70;;;;;;;7.25;69.71;95955.84;4409274;32;20255;-62
2022/01/02 03:55:34;;;;;;;2.13;1.60;;;;;;;7.28;69.55;95957.16;4413353;32;20267;-62
2022/01/02 03:58:00;;;;;;;2.00;1.70;;;;;;;7.34;69.33;95945.59;4410934;32;20233;-62
2022/01/02 04:00:25;;;;;;;1.77;1.67;;;;;;;7.26;69.73;95949.53;4408509;32;20275;-62
2022/01/02 04:02:51;;;;;;;1.67;1.57;;;;;;;7.35;69.16;95934.78;4418082;32;20192;-62
2022/01/02 04:05:16;;;;;;;2.17;1.50;;;;;;;7.28;69.45;95928.12;4404080;32;20282;-62
2022/01/02 04:07:43;;;;;;;1.67;1.57;;;;;;;7.40;68.34;95920.81;4410024;32;20183;-62
2022/01/02 04:10:12;;;;;;;1.90;1.80;;;;;;;7.34;68.58;95922.63;4407643;32;20194;-62
2022/01/02 04:12:38;;;;;;;2.00;1.50;;;;;;;7.53;68.45;95918.47;4417600;32;20279;-62
2022/01/02 04:15:06;;;;;;;1.63;1.53;;;;;;;7.46;68.81;95917.94;4413104;32;20275;-62
2022/01/02 04:17:33;;;;;;;3.23;1.50;;;;;;;7.39;68.57;95917.38;4418841;32;20188;-62
2022/01/02 04:19:59;;;;;;;2.67;1.37;;;;;;;7.39;68.54;95921.88;4418070;32;20358;-62
2022/01/02 04:22:24;;;;;;;1.33;1.23;;;;;;;7.51;68.63;95920.56;4417288;32;20342;-62
2022/01/02 04:24:49;;;;;;;1.47;1.37;;;;;;;7.51;67.86;95917.16;4414160;32;20278;-62
2022/01/02 04:27:18;;;;;;;2.80;1.60;;;;;;;7.42;68.19;95914.22;4405225;32;20252;-62
2022/01/02 04:29:43;;;;;;;2.60;1.80;;;;;;;7.47;67.98;95914.25;4419175;32;20188;-62
2022/01/02 04:32:09;;;;;;;1.67;1.57;;;;;;;7.46;68.18;95917.16;4420845;32;20266;-62
2022/01/02 04:34:34;;;;;;;1.67;1.57;;;;;;;7.47;68.00;95908.97;4419882;32;20175;-62
2022/01/02 04:36:59;;;;;;;1.63;1.53;;;;;;;7.39;68.55;95908.66;4407554;32;20184;-62
2022/01/02 04:39:25;;;;;;;1.93;1.83;;;;;;;7.31;68.86;95909.16;4405272;32;20195;-62
2022/01/02 04:41:50;;;;;;;1.80;1.70;;;;;;;7.21;69.35;95909.91;4415307;32;20187;-62
2022/01/02 04:44:15;;;;;;;1.60;1.50;;;;;;;7.01;70.36;95904.53;4411135;32;20215;-63
2022/01/02 04:46:40;;;;;;;1.50;1.40;;;;;;;7.14;69.98;95901.44;4409882;32;20312;-62
2022/01/02 04:49:06;;;;;;;3.70;1.33;;;;;;;7.14;69.49;95907.50;4420113;32;20183;-62
2022/01/02 04:51:31;;;;;;;1.50;1.40;;;;;;;7.07;69.67;95911.41;4421136;32;20202;-62
2022/01/02 04:53:56;;;;;;;1.70;1.60;;;;;;;6.99;69.63;95910.06;4417155;32;20196;-62
2022/01/02 04:56:22;;;;;;;1.33;1.27;;;;;;;6.96;70.11;95904.50;4420638;32;20206;-62
2022/01/02 04:58:47;;;;;;;1.50;1.40;;;;;;;7.14;69.99;95904.06;4431428;32;20195;-63
2022/01/02 05:01:14;;;;;;;1.50;1.40;;;;;;;7.14;69.88;95904.88;4420849;32;20240;-62
2022/01/02 05:03:43;;;;;;;1.63;1.53;;;;;;;7.21;68.48;95904.62;4419999;32;20184;-62
2022/01/02 05:06:09;;;;;;;1.30;1.20;;;;;;;6.99;69.14;95899.50;4412733;32;20267;-62
2022/01/02 05:08:35;;;;;;;4.43;1.30;;;;;;;7.18;68.64;95897.22;4415346;32;20389;-62
2022/01/02 05:11:04;;;;;;;1.30;1.20;;;;;;;7.21;67.85;95891.44;4421453;32;20271;-62
2022/01/02 05:13:30;;;;;;;1.20;1.00;;;;;;;7.11;68.92;95883.47;4419161;32;20286;-62
2022/01/02 05:15:56;;;;;;;1.30;1.20;;;;;;;7.20;67.98;95887.22;4407047;32;20280;-62
2022/01/02 05:18:21;;;;;;;1.73;1.03;;;;;;;7.18;67.71;95884.84;4407367;32;20188;-62
2022/01/02 05:20:47;;;;;;;1.03;1.03;;;;;;;7.20;67.63;95881.94;4407722;32;20232;-63
2022/01/02 05:23:13;;;;;;;1.17;1.17;;;;;;;7.32;67.82;95882.50;4407485;32;20223;-62
2022/01/02 05:25:39;;;;;;;1.20;1.20;;;;;;;7.35;67.27;95876.72;4417861;32;20247;-62
2022/01/02 05:28:04;;;;;;;1.47;1.37;;;;;;;7.25;67.08;95874.06;4408557;32;20461;-62
2022/01/02 05:30:30;;;;;;;1.67;1.57;;;;;;;7.22;67.35;95870.09;4405930;32;20184;-62
2022/01/02 05:32:55;;;;;;;1.20;1.10;;;;;;;7.23;67.08;95863.75;4407560;32;20230;-62
2022/01/02 05:35:20;;;;;;;1.43;1.33;;;;;;;7.34;66.36;95859.28;4414067;32;20213;-62
2022/01/02 05:37:46;;;;;;;1.20;1.10;;;;;;;7.34;66.12;95861.13;4407733;32;20227;-62
2022/01/02 05:40:11;;;;;;;1.10;1.10;;;;;;;7.03;66.69;95857.59;4407970;32;20211;-62
2022/01/02 05:42:36;;;;;;;1.13;1.03;;;;;;;7.00;66.78;95858.12;4405731;32;20198;-62
2022/01/02 05:45:02;;;;;;;1.57;1.07;;;;;;;7.03;66.56;95860.25;4410749;32;20191;-62
2022/01/02 05:47:27;;;;;;;1.13;1.10;;;;;;;7.07;65.69;95858.66;4419455;32;20202;-62
2022/01/02 05:49:52;;;;;;;1.00;1.00;;;;;;;7.22;65.49;95864.81;4412464;32;20196;-62
2022/01/02 05:52:18;;;;;;;0.83;0.83;;;;;;;7.20;65.26;95859.00;4405672;32;20191;-62
2022/01/02 05:54:43;;;;;;;0.93;0.93;;;;;;;7.10;65.25;95855.50;4416960;32;20187;-62
2022/01/02 05:57:08;;;;;;;0.83;0.83;;;;;;;7.14;65.18;95852.09;4407882;32;20203;-62
2022/01/02 05:59:35;;;;;;;1.10;1.10;;;;;;;7.08;65.09;95855.75;4416044;32;20255;-62
2022/01/02 06:02:00;;;;;;;0.90;0.90;;;;;;;7.30;64.69;95855.56;4411222;32;20206;-62
2022/01/02 06:04:27;;;;;;;1.40;1.30;;;;;;;7.33;64.42;95843.72;4411816;32;20267;-62
2022/01/02 06:06:52;;;;;;;1.00;1.00;;;;;;;7.38;64.74;95846.37;4420877;32;20199;-62
2022/01/02 06:09:18;;;;;;;0.97;0.97;;;;;;;7.51;63.96;95841.38;4409985;32;20333;-63
2022/01/02 06:11:43;;;;;;;1.33;0.97;;;;;;;7.52;64.01;95842.19;4407518;32;20195;-62
2022/01/02 06:14:08;;;;;;;1.87;1.30;;;;;;;7.46;64.28;95840.59;4407007;32;20210;-62
2022/01/02 06:16:33;;;;;;;1.00;1.00;;;;;;;7.33;64.55;95844.50;4418312;32;20285;-62
2022/01/02 06:18:59;;;;;;;1.10;1.00;;;;;;;7.45;64.52;95837.16;4409202;32;20184;-62
2022/01/02 06:21:24;;;;;;;0.83;0.83;;;;;;;7.33;65.05;95839.22;4409722;32;20196;-62
2022/01/02 06:23:49;;;;;;;2.00;1.30;;;;;;;7.26;65.16;95843.97;4417552;32;20251;-62
2022/01/02 06:26:14;;;;;;;0.90;0.90;;;;;;;7.21;65.84;95838.69;4411638;32;20184;-62
2022/01/02 06:28:40;;;;;;;1.33;1.23;;;;;;;7.25;65.48;95842.38;4411299;32;20197;-62
2022/01/02 06:31:05;;;;;;;1.30;1.20;;;;;;;7.02;66.53;95848.09;4411690;32;20225;-62
2022/01/02 06:33:30;;;;;;;1.37;1.20;;;;;;;7.31;65.46;95841.34;4418860;32;20213;-62
2022/01/02 06:35:56;;;;;;;1.30;1.20;;;;;;;7.02;66.51;95838.34;4419410;32;20307;-62
2022/01/02 06:38:22;;;;;;;1.23;1.17;;;;;;;7.01;66.12;95835.97;4416916;32;20184;-62
2022/01/02 06:40:48;;;;;;;1.07;1.07;;;;;;;7.22;65.92;95832.34;4406939;32;20224;-62
2022/01/02 06:43:16;;;;;;;1.10;1.00;;;;;;;7.29;65.39;95832.87;4410445;32;20354;-62
2022/01/02 06:45:42;;;;;;;1.10;1.10;;;;;;;7.25;65.44;95837.13;4420327;32;20271;-62
2022/01/02 06:48:07;;;;;;;0.90;0.90;;;;;;;7.52;64.42;95836.91;4420340;32;20271;-62
2022/01/02 06:50:33;;;;;;;0.93;0.93;;;;;;;7.48;64.60;95836.62;4419234;32;20271;-62
2022/01/02 06:52:59;;;;;;;0.97;0.80;;;;;;;7.59;64.44;95832.19;4411821;32;20188;-62
2022/01/02 06:55:25;;;;;;;1.63;1.00;;;;;;;7.34;65.20;95829.47;4411394;32;20193;-62
2022/01/02 06:57:50;;;;;;;1.00;1.00;;;;;;;7.46;64.56;95833.47;4412431;32;20271;-63
2022/01/02 07:00:16;;;;;;;0.90;0.90;;;;;;;7.36;65.31;95828.16;4411228;32;20241;-63
2022/01/02 07:02:42;;;;;;;2.63;1.10;;;;;;;7.55;64.73;95831.91;4407351;32;20270;-62
2022/01/02 07:05:08;;;;;;;0.90;0.90;;;;;;;7.18;65.31;95836.56;4411968;32;20275;-62
2022/01/02 07:07:39;;;;;;;1.20;0.90;;;;;;;7.42;64.74;95835.03;4406780;32;20199;-62
2022/01/02 07:10:04;;;;;;;1.40;1.30;;;;;;;7.38;65.01;95835.81;4407665;32;20266;-62
2022/01/02 07:12:30;;;;;;;1.13;1.03;;;;;;;7.32;64.85;95826.28;4405840;32;20302;-62
2022/01/02 07:14:55;;;;;;;1.00;1.00;;;;;;;7.42;65.12;95842.97;4411120;32;20195;-62
2022/01/02 07:17:20;;;;;;;1.00;0.90;;;;;;;7.45;64.57;95837.16;4404131;32;20199;-62
2022/01/02 07:19:46;;;;;;;0.70;0.70;;;;;;;7.44;64.72;95840.88;4406469;32;20241;-62
2022/01/02 07:22:11;;;;;;;1.10;1.00;;;;;;;7.41;64.35;95825.53;4419366;32;20206;-62
2022/01/02 07:24:36;;;;;;;1.40;1.30;;;;;;;7.34;65.13;95818.91;4417830;32;20180;-62
2022/01/02 07:27:02;;;;;;;1.23;1.17;;;;;;;7.22;65.58;95832.34;4414102;32;20198;-63
2022/01/02 07:29:27;;;;;;;2.67;1.33;;;;;;;7.29;65.43;95827.59;4419436;32;20223;-62
2022/01/02 07:31:52;;;;;;;1.13;1.03;;;;;;;7.10;65.95;95829.13;4408023;32;20180;-62
2022/01/02 07:34:18;;;;;;;1.27;1.17;;;;;;;7.43;65.42;95827.91;4411809;32;20196;-62
2022/01/02 07:36:44;;;;;;;1.10;1.03;;;;;;;7.36;65.80;95833.44;4416213;32;20191;-61
2022/01/02 07:39:12;;;;;;;0.97;0.93;;;;;;;7.44;65.18;95829.50;4409643;32;20244;-62
2022/01/02 07:41:37;;;;;;;1.20;1.00;;;;;;;7.48;65.55;95828.69;4410728;32;20286;-62
2022/01/02 07:44:03;;;;;;;0.80;0.80;;;;;;;7.75;64.19;95835.62;4403670;32;20291;-62
2022/01/02 07:46:31;;;;;;;1.07;0.90;;;;;;;7.76;64.25;95821.38;4408619;32;20176;-62
2022/01/02 07:48:56;;;;;;;1.13;1.13;;;;;;;7.81;64.26;95821.38;4405845;32;20245;-61
2022/01/02 07:51:21;;;;;;;1.33;1.20;;;;;;;7.69;64.20;95826.91;4404337;32;20285;-62
2022/01/02 07:53:46;;;;;;;1.03;1.03;;;;;;;7.96;63.47;95820.59;4414335;32;20246;-62
2022/01/02 07:56:12;;;;;;;1.30;1.20;;;;;;;7.94;63.35;95818.22;4408835;32;20255;-61
2022/01/02 07:58:38;;;;;;;1.30;1.10;;;;;;;7.70;63.58;95806.56;4411434;32;20206;-62
2022/01/02 08:01:06;;;;;;;1.13;1.03;;;;;;;7.55;64.52;95808.13;4409417;32;20179;-61
2022/01/02 08:03:31;;;;;;;1.23;1.10;;;;;;;7.57;64.71;95808.69;4415276;32;20191;-62
2022/01/02 08:05:57;;;;;;;1.80;1.40;;;;;;;7.67;64.22;95801.84;4419209;32;20314;-62
2022/01/02 08:08:22;;;;;;;2.80;1.70;;;;;;;7.57;64.83;95800.75;4414798;32;20203;-61
2022/01/02 08:10:47;;;;;;;1.47;1.37;;;;;;;7.81;64.47;95800.25;4403718;32;20233;-62
2022/01/02 08:13:13;;;;;;;1.80;1.70;;;;;;;7.96;63.88;95797.59;4407170;32;20255;-62
2022/01/02 08:15:38;;;;;;;1.50;1.40;;;;;;;8.14;63.66;95802.34;4411242;32;20176;-62
2022/01/02 08:18:06;;;;;;;1.80;1.30;;;;;;;8.13;62.94;95795.47;4416153;32;20195;-62
2022/01/02 08:20:31;;;;;;;1.70;1.60;;;;;;;8.09;63.17;95798.94;4407147;32;20188;-62
2022/01/02 08:22:57;;;;;;;1.37;1.27;;;;;;;8.10;63.49;95795.25;4404203;32;20329;-62
2022/01/02 08:25:24;;;;;;;1.50;1.40;;;;;;;8.14;62.40;95802.34;4414841;32;20274;-62
2022/01/02 08:27:49;;;;;;;1.57;1.47;;;;;;;8.32;61.88;95803.69;4422030;32;20198;-62
2022/01/02 08:30:15;;;;;;;2.53;1.30;;;;;;;8.32;62.52;95798.41;4418389;32;20284;-62
2022/01/02 08:32:40;;;;;;;1.40;1.30;;;;;;;8.32;62.63;95794.94;4422226;32;20194;-62
2022/01/02 08:35:07;;;;;;;1.53;1.43;;;;;;;8.30;62.00;95799.72;4421736;32;20304;-62
2022/01/02 08:37:32;;;;;;;2.07;1.30;;;;;;;8.45;62.67;95786.50;4414800;32;20183;-62
2022/01/02 08:39:58;;;;;;;1.43;1.30;;;;;;;8.68;61.06;95785.91;4420905;32;20293;-62
2022/01/02 08:42:23;;;;;;;1.57;1.47;;;;;;;8.81;60.46;95782.69;4421918;32;20203;-62
2022/01/02 08:44:48;;;;;;;1.40;1.20;;;;;;;8.60;60.87;95781.16;4419326;32;20184;-62
2022/01/02 08:47:13;;;;;;;1.00;1.00;;;;;;;8.82;60.34;95773.69;4417534;32;20210;-62
2022/01/02 08:49:39;;;;;;;1.30;1.20;;;;;;;8.86;60.27;95774.72;4406633;32;20191;-62
2022/01/02 08:52:05;;;;;;;1.43;1.33;;;;;;;8.95;60.27;95785.53;4418398;32;20275;-61
2022/01/02 08:54:30;;;;;;;2.00;1.40;;;;;;;8.78;60.64;95772.63;4406681;32;20245;-62
2022/01/02 08:56:55;;;;;;;1.57;1.27;;;;;;;8.68;60.89;95777.19;4408721;32;20196;-61
2022/01/02 08:59:27;;;;;;;1.90;1.50;;;;;;;8.74;61.25;95776.88;4397592;32;20287;-62
2022/01/02 09:01:53;;;;;;;1.27;1.23;;;;;;;8.94;61.03;95776.00;4420828;32;20191;-61
2022/01/02 09:04:18;;;;;;;1.63;1.30;;;;;;;8.95;61.60;95777.59;4416421;32;20286;-62
2022/01/02 09:06:44;;;;;;;1.27;1.17;;;;;;;8.87;61.47;95776.31;4407921;32;20180;-61
2022/01/02 09:09:09;;;;;;;3.07;1.80;;;;;;;8.99;62.46;95770.69;4418159;32;20172;-61
2022/01/02 09:11:34;;;;;;;1.63;1.40;;;;;;;8.77;63.18;95763.13;4418577;32;20248;-61
2022/01/02 09:14:02;;;;;;;1.93;1.73;;;;;;;8.66;64.30;95768.72;4422258;32;20184;-62
2022/01/02 09:16:27;;;;;;;1.90;1.80;;;;;;;9.01;63.48;95763.28;4411549;32;20220;-62
2022/01/02 09:18:53;;;;;;;1.60;1.50;;;;;;;9.07;64.32;95777.28;4421641;32;20195;-62
2022/01/02 09:21:18;;;;;;;3.73;1.53;;;;;;;8.96;64.82;95766.72;4417215;32;20206;-62
2022/01/02 09:23:43;;;;;;;1.80;1.70;;;;;;;8.90;65.89;95761.75;4410887;32;20184;-62
2022/01/02 09:26:10;;;;;;;2.33;1.77;;;;;;;9.10;65.10;95758.22;4415212;32;20263;-62
2022/01/02 09:28:35;;;;;;;2.70;2.50;;;;;;;9.04;66.10;95754.00;4420695;32;20271;-62
2022/01/02 09:31:00;;;;;;;3.47;3.10;;;;;;;9.00;66.66;95758.25;4416813;32;20218;-62
2022/01/02 09:33:26;;;;;;;5.83;3.87;;;;;;;9.06;66.10;95755.31;4414255;32;20179;-62
2022/01/02 09:35:51;;;;;;;3.30;2.93;;;;;;;9.25;65.81;95755.47;4410943;32;20195;-62
2022/01/02 09:38:16;;;;;;;3.50;3.20;;;;;;;9.13;65.49;95766.41;4406054;32;20303;-62
2022/01/02 09:40:42;;;;;;;2.83;2.63;;;;;;;9.15;66.87;95760.81;4422015;32;20229;-61
2022/01/02 09:43:07;;;;;;;3.23;2.83;;;;;;;9.30;66.10;95763.41;4421019;32;20195;-62
2022/01/02 09:45:35;;;;;;;2.30;2.10;;;;;;;9.30;66.41;95760.75;4418282;32;20195;-62
2022/01/02 09:48:04;;;;;;;2.23;2.10;;;;;;;9.52;63.22;95763.00;4407825;32;20210;-62
2022/01/02 09:50:31;;;;;;;1.90;1.80;;;;;;;9.62;63.99;95763.72;4410085;32;20233;-62
2022/01/02 09:52:56;;;;;;;1.53;1.43;;;;;;;9.70;62.17;95772.16;4407735;32;20210;-62
2022/01/02 09:55:21;;;;;;;1.80;1.70;;;;;;;9.76;62.85;95765.75;4406993;32;20215;-62
2022/01/02 09:57:48;;;;;;;2.43;1.70;;;;;;;9.79;64.89;95765.97;4406673;32;20235;-62
2022/01/02 10:00:15;;;;;;;1.40;1.30;;;;;;;9.95;62.61;95766.66;4407960;32;20173;-62
2022/01/02 10:03:03;;;;;;;1.87;1.40;;;;;;;9.89;63.07;95765.91;4416405;32;20189;-62
2022/01/02 10:05:47;;;;;;;3.40;1.23;;;;;;;10.16;60.43;95752.16;4414942;32;20267;-64
2022/01/02 10:08:20;;;;;;;1.10;0.90;;;;;;;10.00;60.27;95758.63;4409998;32;20194;-64
2022/01/02 10:10:46;;;;;;;1.17;1.07;;;;;;;10.24;57.92;95759.50;4409956;32;20189;-65
2022/01/02 10:13:11;;;;;;;0.87;0.87;;;;;;;10.46;56.56;95752.94;4408642;32;20184;-64
2022/01/02 10:15:36;;;;;;;0.73;0.73;;;;;;;10.57;57.08;95754.44;4415079;32;20179;-64
2022/01/02 10:18:05;;;;;;;1.00;1.00;;;;;;;10.73;54.31;95745.22;4413910;32;20188;-64
2022/01/02 10:20:48;;;;;;;0.70;0.70;;;;;;;10.88;54.71;95747.69;4411897;32;20300;-64
2022/01/02 10:23:18;;;;;;;0.70;0.70;;;;;;;11.05;52.51;95735.78;4411460;32;20175;-64
2022/01/02 10:25:49;;;;;;;0.93;0.90;;;;;;;11.12;53.12;95733.59;4413188;32;20206;-64
2022/01/02 10:28:19;;;;;;;0.70;0.70;;;;;;;11.19;52.81;95729.50;4404151;32;20223;-67
2022/01/02 10:30:46;;;;;;;0.63;0.63;;;;;;;11.24;52.05;95725.97;4424490;32;20198;-64
2022/01/02 10:33:11;;;;;;;0.60;0.60;;;;;;;11.31;51.06;95723.75;4406286;32;20180;-64
2022/01/02 10:35:36;;;;;;;1.03;0.70;;;;;;;11.36;51.26;95726.34;4408605;32;20327;-64
2022/01/02 10:38:04;;;;;;;1.53;0.50;;;;;;;11.43;52.79;95720.69;4405927;32;20213;-64
2022/01/02 10:40:34;;;;;;;0.80;0.80;;;;;;;11.36;52.87;95721.81;4426495;32;20184;-64
2022/01/02 10:43:21;;;;;;;1.53;0.90;;;;;;;11.30;53.84;95715.00;4415074;32;20244;-64
2022/01/02 10:45:50;;;;;;;0.90;0.77;;;;;;;11.40;52.52;95708.75;4419283;32;20227;-65
2022/01/02 10:48:18;;;;;;;1.10;1.00;;;;;;;11.41;52.03;95713.00;4414944;32;20232;-65
2022/01/02 10:51:05;;;;;;;5.33;4.90;;;;;;;11.45;50.78;95711.31;4421611;32;20183;-64
2022/01/02 10:53:33;;;;;;;16.50;14.43;;;;;;;11.54;51.55;95712.25;4408757;32;20267;-64
2022/01/02 10:55:59;;;;;;;7.50;6.80;;;;;;;11.74;52.67;95707.69;4420668;32;20214;-64
2022/01/02 10:58:25;;;;;;;4.43;4.13;;;;;;;11.87;50.38;95709.63;4415188;32;20240;-64
2022/01/02 11:00:51;;;;;;;2.33;2.13;;;;;;;11.77;50.97;95707.16;4413104;32;20177;-64
2022/01/02 11:03:17;;;;;;;1.63;1.50;;;;;;;11.87;51.34;95707.75;4405446;32;20253;-64
2022/01/02 11:05:45;;;;;;;1.13;1.10;;;;;;;11.91;51.58;95694.69;4411685;32;20194;-64
2022/01/02 11:08:12;;;;;;;1.13;0.93;;;;;;;12.20;48.53;95692.56;4406746;32;20207;-64
2022/01/02 11:10:38;;;;;;;0.60;0.60;;;;;;;12.23;48.77;95692.00;4407734;32;20194;-64
2022/01/02 11:13:04;;;;;;;1.40;0.87;;;;;;;12.44;48.54;95692.41;4415340;32;20176;-64
2022/01/02 11:15:30;;;;;;;0.90;0.90;;;;;;;12.47;48.18;95693.69;4407292;32;20176;-64
2022/01/02 11:17:56;;;;;;;0.77;0.77;;;;;;;12.39;48.79;95698.59;4419613;32;20302;-64
2022/01/02 11:20:24;;;;;;;0.80;0.70;;;;;;;12.52;47.76;95693.56;4420144;32;20199;-64
2022/01/02 11:23:00;;;;;;;1.03;0.90;;;;;;;12.49;48.59;95688.84;4416234;32;20247;-64
2022/01/02 11:25:55;;;;;;;1.60;0.80;;;;;;;12.52;49.50;95693.56;4405716;32;20179;-64
2022/01/02 11:28:38;;;;;;;1.70;1.60;;;;;;;12.49;50.52;95686.97;4423693;32;20180;-65
2022/01/02 11:31:09;;;;;;;0.80;0.80;;;;;;;12.50;49.06;95680.56;4407210;32;20180;-64
2022/01/02 11:33:42;;;;;;;1.07;0.70;;;;;;;12.51;51.10;95681.34;4416938;32;20247;-64
2022/01/02 11:36:22;;;;;;;1.17;0.70;;;;;;;12.74;49.21;95686.47;4408323;32;20201;-64
2022/01/02 11:38:56;;;;;;;2.43;0.80;;;;;;;12.85;49.68;95683.59;4415913;32;20198;-65
2022/01/02 11:41:41;;;;;;;0.97;0.97;;;;;;;12.82;49.52;95677.00;4411890;32;20206;-64
2022/01/02 11:44:09;;;;;;;2.83;2.63;;;;;;;12.86;49.57;95683.31;4415672;32;20239;-64
2022/01/02 11:46:53;;;;;;;6.87;6.27;;;;;;;12.98;49.04;95685.44;4418899;32;20327;-64